createdAt,value
2022-09-28T00:01:41.976Z,12.25
2022-09-28T00:04:10.179Z,12.28
2022-09-28T00:06:38.784Z,12.22
2022-09-28T00:09:06.832Z,12.18
2022-09-28T00:11:35.554Z,12.17
2022-09-28T00:14:03.898Z,12.13
2022-09-28T00:16:34.846Z,12.13
2022-09-28T00:19:05.447Z,12.14
2022-09-28T00:21:35.998Z,12.15
2022-09-28T00:24:15.996Z,12.14
2022-09-28T00:26:44.120Z,12.14
2022-09-28T00:29:27.760Z,12.16
2022-09-28T00:32:15.796Z,12.20
2022-09-28T00:34:49.090Z,12.19
2022-09-28T00:37:19.311Z,12.14
2022-09-28T00:39:49.279Z,12.17
2022-09-28T00:42:22.930Z,12.20
2022-09-28T00:44:56.312Z,12.19
2022-09-28T00:47:49.996Z,12.21
2022-09-28T00:50:29.346Z,12.18
2022-09-28T00:53:11.739Z,12.13
2022-09-28T00:55:57.327Z,12.13
2022-09-28T00:58:30.103Z,12.10
2022-09-28T01:00:59.939Z,12.07
2022-09-28T01:03:29.232Z,12.08
2022-09-28T01:06:02.487Z,12.06
2022-09-28T01:08:33.142Z,12.02
2022-09-28T01:11:01.968Z,12.01
2022-09-28T01:13:32.868Z,11.98
2022-09-28T01:16:09.979Z,11.99
2022-09-28T01:18:48.875Z,12.03
2022-09-28T01:21:20.532Z,12.03
2022-09-28T01:24:03.759Z,12.04
2022-09-28T01:26:40.195Z,11.95
2022-09-28T01:29:34.091Z,11.94
2022-09-28T01:32:27.875Z,11.98
2022-09-28T01:35:23.385Z,11.98
2022-09-28T01:37:57.606Z,11.97
2022-09-28T01:40:29.743Z,12.00
2022-09-28T01:43:24.263Z,12.01
2022-09-28T01:46:06.741Z,11.97
2022-09-28T01:48:54.781Z,12.01
2022-09-28T01:51:32.510Z,12.00
2022-09-28T01:54:07.349Z,11.93
2022-09-28T01:56:46.112Z,11.89
2022-09-28T01:59:20.283Z,11.89
2022-09-28T02:01:54.927Z,11.91
2022-09-28T02:04:26.047Z,11.93
2022-09-28T02:07:01.390Z,11.93
2022-09-28T02:09:49.632Z,11.91
2022-09-28T02:12:27.225Z,11.93
2022-09-28T02:15:06.766Z,11.92
2022-09-28T02:17:35.451Z,11.88
2022-09-28T02:20:04.638Z,11.92
2022-09-28T02:22:44.419Z,11.90
2022-09-28T02:25:39.806Z,11.87
2022-09-28T02:28:11.974Z,11.84
2022-09-28T02:30:43.425Z,11.84
2022-09-28T02:33:41.294Z,11.84
2022-09-28T02:36:10.082Z,11.82
2022-09-28T02:38:39.591Z,11.78
2022-09-28T02:41:28.242Z,11.76
2022-09-28T02:43:59.282Z,11.73
2022-09-28T02:46:46.301Z,11.69
2022-09-28T02:49:26.032Z,11.71
2022-09-28T02:52:13.984Z,11.67
2022-09-28T02:54:52.211Z,11.58
2022-09-28T02:57:46.889Z,11.49
2022-09-28T03:00:19.908Z,11.42
2022-09-28T03:03:04.226Z,11.37
2022-09-28T03:05:40.078Z,11.37
2022-09-28T03:08:17.263Z,11.31
2022-09-28T03:11:23.427Z,11.31
2022-09-28T03:13:53.241Z,11.34
2022-09-28T03:16:23.413Z,11.31
2022-09-28T03:18:51.840Z,11.33
2022-09-28T03:21:20.013Z,11.33
2022-09-28T03:23:48.390Z,11.35
2022-09-28T03:26:18.306Z,11.35
2022-09-28T03:28:46.787Z,11.32
2022-09-28T03:31:19.563Z,11.30
2022-09-28T03:33:47.948Z,11.35
2022-09-28T03:36:16.120Z,11.36
2022-09-28T03:38:44.398Z,11.36
2022-09-28T03:41:12.573Z,11.36
2022-09-28T03:43:42.591Z,11.36
2022-09-28T03:46:11.389Z,11.39
2022-09-28T03:48:43.544Z,11.47
2022-09-28T03:51:12.946Z,11.48
2022-09-28T03:53:41.222Z,11.48
2022-09-28T03:56:13.479Z,11.48
2022-09-28T03:58:42.718Z,11.44
2022-09-28T04:01:16.895Z,11.42
2022-09-28T04:03:47.244Z,11.39
2022-09-28T04:06:15.609Z,11.32
2022-09-28T04:08:43.782Z,11.30
2022-09-28T04:11:12.683Z,11.30
2022-09-28T04:13:41.669Z,11.29
2022-09-28T04:16:12.581Z,11.26
2022-09-28T04:18:44.750Z,11.23
2022-09-28T04:21:28.409Z,11.21
2022-09-28T04:24:02.826Z,11.15
2022-09-28T04:26:31.311Z,11.13
2022-09-28T04:29:17.433Z,11.11
2022-09-28T04:32:00.298Z,11.05
2022-09-28T04:34:37.899Z,11.07
2022-09-28T04:37:08.039Z,11.05
2022-09-28T04:39:36.125Z,11.00
2022-09-28T04:42:04.485Z,10.93
2022-09-28T04:44:33.068Z,10.92
2022-09-28T04:47:06.466Z,10.91
2022-09-28T04:49:53.481Z,10.92
2022-09-28T04:52:27.700Z,10.98
2022-09-28T04:54:55.872Z,11.01
2022-09-28T04:57:25.581Z,11.00
2022-09-28T04:59:53.649Z,10.99
2022-09-28T05:02:21.859Z,10.99
2022-09-28T05:05:13.039Z,11.04
2022-09-28T05:08:07.221Z,11.09
2022-09-28T05:10:36.011Z,11.09
2022-09-28T05:13:04.388Z,11.10
2022-09-28T05:15:34.201Z,11.07
2022-09-28T05:18:03.398Z,11.07
2022-09-28T05:20:43.123Z,11.09
2022-09-28T05:23:12.648Z,11.13
2022-09-28T05:25:43.281Z,11.12
2022-09-28T05:28:28.153Z,11.08
2022-09-28T05:31:15.388Z,11.05
2022-09-28T05:33:59.103Z,10.96
2022-09-28T05:36:28.198Z,10.91
2022-09-28T05:38:57.143Z,10.94
2022-09-28T05:41:25.468Z,10.89
2022-09-28T05:43:55.151Z,10.83
2022-09-28T05:46:23.972Z,10.79
2022-09-28T05:48:52.844Z,10.71
2022-09-28T05:51:22.259Z,10.64
2022-09-28T05:53:50.331Z,10.62
2022-09-28T05:56:20.039Z,10.60
2022-09-28T05:58:49.545Z,10.55
2022-09-28T06:01:20.638Z,10.55
2022-09-28T06:03:48.765Z,10.51
2022-09-28T06:06:16.831Z,10.52
2022-09-28T06:08:48.594Z,10.56
2022-09-28T06:11:37.451Z,10.55
2022-09-28T06:14:14.071Z,10.55
2022-09-28T06:16:44.047Z,10.55
2022-09-28T06:19:13.540Z,10.56
2022-09-28T06:22:17.144Z,10.64
2022-09-28T06:24:52.186Z,10.67
2022-09-28T06:27:20.454Z,10.71
2022-09-28T06:29:48.528Z,10.75
2022-09-28T06:32:16.598Z,10.73
2022-09-28T06:34:48.654Z,10.73
2022-09-28T06:37:18.781Z,10.78
2022-09-28T06:39:47.365Z,10.76
2022-09-28T06:42:17.894Z,10.77
2022-09-28T06:45:05.114Z,10.78
2022-09-28T06:48:01.245Z,10.81
2022-09-28T06:50:42.632Z,10.82
2022-09-28T06:53:30.358Z,10.85
2022-09-28T06:56:19.710Z,10.95
2022-09-28T06:58:48.547Z,10.98
2022-09-28T07:01:16.879Z,11.01
2022-09-28T07:04:08.109Z,11.05
2022-09-28T07:06:55.127Z,11.05
2022-09-28T07:09:50.236Z,11.07
2022-09-28T07:12:36.529Z,11.13
2022-09-28T07:15:27.743Z,11.17
2022-09-28T07:18:03.358Z,11.20
2022-09-28T07:20:44.634Z,11.25
2022-09-28T07:23:19.832Z,11.32
2022-09-28T07:26:26.695Z,11.38
2022-09-28T07:29:01.110Z,11.45
2022-09-28T07:31:39.526Z,11.53
2022-09-28T07:34:26.028Z,11.54
2022-09-28T07:37:13.663Z,11.56
2022-09-28T07:40:00.572Z,11.59
2022-09-28T07:42:31.404Z,11.61
2022-09-28T07:45:00.297Z,11.64
2022-09-28T07:47:33.875Z,11.67
2022-09-28T07:50:32.896Z,11.76
2022-09-28T07:53:38.383Z,11.87
2022-09-28T07:56:25.972Z,11.91
2022-09-28T07:59:03.158Z,11.97
2022-09-28T08:01:40.305Z,12.04
2022-09-28T08:04:11.473Z,12.08
2022-09-28T08:06:41.811Z,12.10
2022-09-28T08:09:11.727Z,12.10
2022-09-28T08:11:59.867Z,12.13
2022-09-28T08:14:48.322Z,12.20
2022-09-28T08:17:48.134Z,12.25
2022-09-28T08:20:36.686Z,12.29
2022-09-28T08:23:09.157Z,12.36
2022-09-28T08:25:38.933Z,12.43
2022-09-28T08:28:08.167Z,12.51
2022-09-28T08:30:47.013Z,12.62
2022-09-28T08:33:27.864Z,12.68
2022-09-28T08:36:28.906Z,12.74
2022-09-28T08:39:02.711Z,12.77
2022-09-28T08:42:17.171Z,12.83
2022-09-28T08:45:15.656Z,12.82
2022-09-28T08:48:32.162Z,12.75
2022-09-28T08:51:39.560Z,12.69
2022-09-28T08:54:24.214Z,12.65
2022-09-28T08:57:05.395Z,12.59
2022-09-28T08:59:49.548Z,12.53
2022-09-28T09:02:29.653Z,12.49
2022-09-28T09:05:15.026Z,12.46
2022-09-28T09:08:16.016Z,12.60
2022-09-28T09:10:58.116Z,12.69
2022-09-28T09:13:42.674Z,12.78
2022-09-28T09:16:19.026Z,12.93
2022-09-28T09:19:41.267Z,13.07
2022-09-28T09:22:46.115Z,13.27
2022-09-28T09:25:26.126Z,13.41
2022-09-28T09:28:15.846Z,13.53
2022-09-28T09:31:27.402Z,13.64
2022-09-28T09:34:15.373Z,13.63
2022-09-28T09:37:18.670Z,13.71
2022-09-28T09:40:41.253Z,13.75
2022-09-28T09:43:50.146Z,13.80
2022-09-28T09:46:49.963Z,13.80
2022-09-28T09:49:31.142Z,13.92
2022-09-28T09:52:10.486Z,14.06
2022-09-28T09:54:51.655Z,14.13
2022-09-28T09:57:54.750Z,14.20
2022-09-28T10:00:46.166Z,14.37
2022-09-28T10:03:28.267Z,14.50
2022-09-28T10:06:12.335Z,14.62
2022-09-28T10:08:46.938Z,14.73
2022-09-28T10:11:31.780Z,14.85
2022-09-28T10:14:00.285Z,14.93
2022-09-28T10:16:41.216Z,15.01
2022-09-28T10:19:16.987Z,15.10
2022-09-28T10:22:06.604Z,15.23
2022-09-28T10:24:41.823Z,15.27
2022-09-28T10:27:28.941Z,15.29
2022-09-28T10:30:12.983Z,15.33
2022-09-28T10:32:46.792Z,15.36
2022-09-28T10:35:23.023Z,15.38
2022-09-28T10:38:17.319Z,15.39
2022-09-28T10:40:48.216Z,15.44
2022-09-28T10:43:33.862Z,15.49
2022-09-28T10:46:03.951Z,15.59
2022-09-28T10:48:37.612Z,15.68
2022-09-28T10:51:08.385Z,15.71
2022-09-28T10:53:37.722Z,15.71
2022-09-28T10:56:23.508Z,15.62
2022-09-28T10:59:01.820Z,15.64
2022-09-28T11:01:44.336Z,15.70
2022-09-28T11:04:24.584Z,15.79
2022-09-28T11:06:52.891Z,15.93
2022-09-28T11:09:32.608Z,15.96
2022-09-28T11:12:07.235Z,15.89
2022-09-28T11:14:42.096Z,15.84
2022-09-28T11:17:26.105Z,15.86
2022-09-28T11:20:28.485Z,15.92
2022-09-28T11:23:16.008Z,15.99
2022-09-28T11:25:55.959Z,16.04
2022-09-28T11:28:38.818Z,16.12
2022-09-28T11:31:15.282Z,16.21
2022-09-28T11:34:31.465Z,16.20
2022-09-28T11:37:22.352Z,16.10
2022-09-28T11:40:22.078Z,16.00
2022-09-28T11:43:07.574Z,15.93
2022-09-28T11:46:08.114Z,15.97
2022-09-28T11:48:48.024Z,16.05
2022-09-28T11:51:22.958Z,16.15
2022-09-28T11:53:56.763Z,16.22
2022-09-28T11:56:39.580Z,16.25
2022-09-28T11:59:17.325Z,16.25
2022-09-28T12:01:53.642Z,16.28
2022-09-28T12:04:41.785Z,16.30
2022-09-28T12:07:19.597Z,16.34
2022-09-28T12:09:54.422Z,16.35
2022-09-28T12:12:45.833Z,16.35
2022-09-28T12:15:19.436Z,16.38
2022-09-28T12:17:54.452Z,16.40
2022-09-28T12:20:46.807Z,16.42
2022-09-28T12:23:29.728Z,16.42
2022-09-28T12:26:02.918Z,16.41
2022-09-28T12:28:46.174Z,16.37
2022-09-28T12:31:57.221Z,16.33
2022-09-28T12:34:25.808Z,16.31
2022-09-28T12:37:09.174Z,16.29
2022-09-28T12:40:14.688Z,16.29
2022-09-28T12:42:53.110Z,16.26
2022-09-28T12:46:09.774Z,16.24
2022-09-28T12:48:58.416Z,16.22
2022-09-28T12:51:55.927Z,16.23
2022-09-28T12:54:30.757Z,16.23
2022-09-28T12:57:31.494Z,16.23
2022-09-28T13:00:25.063Z,16.24
2022-09-28T13:03:10.545Z,16.25
2022-09-28T13:06:00.167Z,16.27
2022-09-28T13:08:55.427Z,16.27
2022-09-28T13:11:38.554Z,16.26
2022-09-28T13:14:44.000Z,16.25
2022-09-28T13:17:38.082Z,16.26
2022-09-28T13:20:38.307Z,16.27
2022-09-28T13:23:09.353Z,16.27
2022-09-28T13:25:41.412Z,16.27
2022-09-28T13:28:11.840Z,16.29
2022-09-28T13:30:40.840Z,16.31
2022-09-28T13:33:17.406Z,16.33
2022-09-28T13:35:45.576Z,16.37
2022-09-28T13:38:16.719Z,16.38
2022-09-28T13:41:12.746Z,16.40
2022-09-28T13:43:53.208Z,16.41
2022-09-28T13:46:46.778Z,16.41
2022-09-28T13:49:30.313Z,16.44
2022-09-28T13:52:05.447Z,16.47
2022-09-28T13:54:55.023Z,16.49
2022-09-28T13:57:53.508Z,16.52
2022-09-28T14:00:26.700Z,16.55
2022-09-28T14:03:29.059Z,16.58
2022-09-28T14:06:00.854Z,16.62
2022-09-28T14:08:38.837Z,16.64
2022-09-28T14:11:25.238Z,16.68
2022-09-28T14:14:00.989Z,16.71
2022-09-28T14:16:32.128Z,16.79
2022-09-28T14:19:07.576Z,16.90
2022-09-28T14:21:44.559Z,17.03
2022-09-28T14:24:15.598Z,17.20
2022-09-28T14:27:02.306Z,17.33
2022-09-28T14:29:34.681Z,17.45
2022-09-28T14:32:08.483Z,17.60
2022-09-28T14:34:43.825Z,17.84
2022-09-28T14:37:49.888Z,18.11
2022-09-28T14:40:40.164Z,18.43
2022-09-28T14:43:24.921Z,18.69
2022-09-28T14:46:08.840Z,18.69
2022-09-28T14:49:04.694Z,18.54
2022-09-28T14:51:38.206Z,18.36
2022-09-28T14:54:17.998Z,18.18
2022-09-28T14:57:09.817Z,18.02
2022-09-28T14:59:44.108Z,17.85
2022-09-28T15:02:17.493Z,17.70
2022-09-28T15:04:53.633Z,17.56
2022-09-28T15:07:48.016Z,17.43
2022-09-28T15:10:43.644Z,17.29
2022-09-28T15:13:27.205Z,17.15
2022-09-28T15:15:59.691Z,17.02
2022-09-28T15:19:09.314Z,16.91
2022-09-28T15:21:40.151Z,16.79
2022-09-28T15:25:03.152Z,16.70
2022-09-28T15:27:37.835Z,16.60
2022-09-28T15:30:15.124Z,16.52
2022-09-28T15:32:43.195Z,16.45
2022-09-28T15:35:25.807Z,16.37
2022-09-28T15:37:55.913Z,16.29
2022-09-28T15:40:38.835Z,16.22
2022-09-28T15:43:27.297Z,16.14
2022-09-28T15:46:07.307Z,16.05
2022-09-28T15:48:56.003Z,15.97
2022-09-28T15:51:25.403Z,15.93
2022-09-28T15:54:31.363Z,15.90
2022-09-28T15:57:02.942Z,15.84
2022-09-28T15:59:35.788Z,15.77
2022-09-28T16:02:09.913Z,15.71
2022-09-28T16:04:55.614Z,15.67
2022-09-28T16:07:31.918Z,15.58
2022-09-28T16:10:02.214Z,15.52
2022-09-28T16:12:54.319Z,15.46
2022-09-28T16:15:37.282Z,15.38
2022-09-28T16:18:29.686Z,15.30
2022-09-28T16:21:21.716Z,15.24
2022-09-28T16:23:55.827Z,15.13
2022-09-28T16:26:39.105Z,15.09
2022-09-28T16:29:43.172Z,15.09
2022-09-28T16:32:26.304Z,15.08
2022-09-28T16:35:11.161Z,15.07
2022-09-28T16:37:42.919Z,15.08
2022-09-28T16:40:12.012Z,15.06
2022-09-28T16:42:49.104Z,15.04
2022-09-28T16:45:24.359Z,15.02
2022-09-28T16:47:56.579Z,15.02
2022-09-28T16:50:26.601Z,15.00
2022-09-28T16:53:34.532Z,15.00
2022-09-28T16:56:05.173Z,15.00
2022-09-28T16:58:33.947Z,14.96
2022-09-28T17:01:02.121Z,14.93
2022-09-28T17:03:30.539Z,14.86
2022-09-28T17:05:59.086Z,14.86
2022-09-28T17:08:28.147Z,14.85
2022-09-28T17:11:20.200Z,14.81
2022-09-28T17:13:49.935Z,14.80
2022-09-28T17:16:37.026Z,14.79
2022-09-28T17:19:26.104Z,14.77
2022-09-28T17:21:54.288Z,14.75
2022-09-28T17:24:23.576Z,14.71
2022-09-28T17:26:52.392Z,14.67
2022-09-28T17:29:20.847Z,14.64
2022-09-28T17:31:49.020Z,14.67
2022-09-28T17:34:17.197Z,14.65
2022-09-28T17:36:46.480Z,14.64
2022-09-28T17:39:20.196Z,14.64
2022-09-28T17:41:49.804Z,14.64
2022-09-28T17:44:20.576Z,14.64
2022-09-28T17:46:49.793Z,14.63
2022-09-28T17:49:18.833Z,14.62
2022-09-28T17:51:47.009Z,14.60
2022-09-28T17:54:17.036Z,14.57
2022-09-28T17:56:46.322Z,14.55
2022-09-28T17:59:17.978Z,14.51
2022-09-28T18:01:46.194Z,14.47
2022-09-28T18:04:39.597Z,14.45
2022-09-28T18:07:04.721Z,14.41
2022-09-28T18:09:32.996Z,14.39
2022-09-28T18:12:04.900Z,14.38
2022-09-28T18:14:33.335Z,14.42
2022-09-28T18:17:01.407Z,14.40
2022-09-28T18:19:32.138Z,14.37
2022-09-28T18:22:01.768Z,14.37
2022-09-28T18:24:32.720Z,14.35
2022-09-28T18:27:01.067Z,14.35
2022-09-28T18:29:33.132Z,14.33
2022-09-28T18:32:02.765Z,14.31
2022-09-28T18:34:30.914Z,14.30
2022-09-28T18:36:58.984Z,14.29
2022-09-28T18:39:27.056Z,14.29
2022-09-28T18:41:55.127Z,14.26
2022-09-28T18:44:23.916Z,14.25
2022-09-28T18:46:51.986Z,14.26
2022-09-28T18:49:20.909Z,14.26
2022-09-28T18:51:49.357Z,14.25
2022-09-28T18:54:17.738Z,14.24
2022-09-28T18:56:46.013Z,14.23
2022-09-28T18:59:14.893Z,14.22
2022-09-28T19:01:43.812Z,14.21
2022-09-28T19:04:13.912Z,14.20
2022-09-28T19:06:43.003Z,14.19
2022-09-28T19:09:12.452Z,14.19
2022-09-28T19:11:40.583Z,14.18
2022-09-28T19:14:11.317Z,14.17
2022-09-28T19:16:39.446Z,14.16
2022-09-28T19:19:07.767Z,14.14
2022-09-28T19:21:36.088Z,14.13
2022-09-28T19:24:05.465Z,14.12
2022-09-28T19:26:34.351Z,14.12
2022-09-28T19:29:03.337Z,14.11
2022-09-28T19:31:32.834Z,14.11
2022-09-28T19:34:01.008Z,14.09
2022-09-28T19:36:29.591Z,14.09
2022-09-28T19:39:03.201Z,14.08
2022-09-28T19:41:51.747Z,14.07
2022-09-28T19:44:25.517Z,14.05
2022-09-28T19:47:00.086Z,14.03
2022-09-28T19:49:33.242Z,14.02
2022-09-28T19:52:13.463Z,14.01
2022-09-28T19:54:52.246Z,14.00
2022-09-28T19:57:20.620Z,13.98
2022-09-28T19:59:52.573Z,13.97
2022-09-28T20:02:22.128Z,13.96
2022-09-28T20:04:50.266Z,13.95
2022-09-28T20:07:18.538Z,13.94
2022-09-28T20:09:46.609Z,13.92
2022-09-28T20:12:14.681Z,13.91
2022-09-28T20:14:43.161Z,13.91
2022-09-28T20:17:11.232Z,13.91
2022-09-28T20:19:39.406Z,13.95
2022-09-28T20:22:07.479Z,13.96
2022-09-28T20:24:35.505Z,13.97
2022-09-28T20:27:03.561Z,13.98
2022-09-28T20:29:33.685Z,13.99
2022-09-28T20:32:04.165Z,13.99
2022-09-28T20:34:34.184Z,13.99
2022-09-28T20:37:02.565Z,13.98
2022-09-28T20:39:30.952Z,13.98
2022-09-28T20:41:59.011Z,13.98
2022-09-28T20:44:27.391Z,13.98
2022-09-28T20:46:56.998Z,13.98
2022-09-28T20:49:27.425Z,13.96
2022-09-28T20:51:55.496Z,13.95
2022-09-28T20:54:23.527Z,13.92
2022-09-28T20:56:52.152Z,13.90
2022-09-28T20:59:23.090Z,13.88
2022-09-28T21:01:52.910Z,13.87
2022-09-28T21:04:21.295Z,13.86
2022-09-28T21:06:49.557Z,13.85
2022-09-28T21:09:17.733Z,13.84
2022-09-28T21:11:46.721Z,13.84
2022-09-28T21:14:15.462Z,13.85
2022-09-28T21:16:43.787Z,13.92
2022-09-28T21:19:11.861Z,13.95
2022-09-28T21:21:40.397Z,13.94
2022-09-28T21:24:08.717Z,13.96
2022-09-28T21:26:39.176Z,13.98
2022-09-28T21:29:12.542Z,13.99
2022-09-28T21:31:49.622Z,13.98
2022-09-28T21:34:20.341Z,13.99
2022-09-28T21:36:51.528Z,13.98
2022-09-28T21:39:20.391Z,13.99
2022-09-28T21:41:48.568Z,13.98
2022-09-28T21:44:16.899Z,13.95
2022-09-28T21:46:45.570Z,13.93
2022-09-28T21:49:19.955Z,13.92
2022-09-28T21:51:55.117Z,13.91
2022-09-28T21:54:30.869Z,13.91
2022-09-28T21:57:01.551Z,13.84
2022-09-28T21:59:29.947Z,13.80
2022-09-28T22:01:58.157Z,13.81
2022-09-28T22:04:26.296Z,13.76
2022-09-28T22:06:54.570Z,13.67
2022-09-28T22:09:22.744Z,13.57
2022-09-28T22:11:51.536Z,13.50
2022-09-28T22:14:19.766Z,13.40
2022-09-28T22:16:48.069Z,13.22
2022-09-28T22:19:16.263Z,13.07
2022-09-28T22:21:44.636Z,12.93
2022-09-28T22:24:12.715Z,12.90
2022-09-28T22:26:41.091Z,12.89
2022-09-28T22:29:10.234Z,12.83
2022-09-28T22:31:40.644Z,12.77
2022-09-28T22:34:09.737Z,12.76
2022-09-28T22:36:37.878Z,12.82
2022-09-28T22:39:06.344Z,12.88
2022-09-28T22:41:35.044Z,12.94
2022-09-28T22:44:03.118Z,13.02
2022-09-28T22:46:32.923Z,13.07
2022-09-28T22:49:02.024Z,13.12
2022-09-28T22:51:31.003Z,13.18
2022-09-28T22:53:59.603Z,13.22
2022-09-28T22:56:28.285Z,13.23
2022-09-28T22:58:56.357Z,13.22
2022-09-28T23:01:27.668Z,13.18
2022-09-28T23:03:57.320Z,13.17
2022-09-28T23:06:27.328Z,13.18
2022-09-28T23:08:55.504Z,13.14
2022-09-28T23:11:23.684Z,13.09
2022-09-28T23:13:53.798Z,13.06
2022-09-28T23:16:25.075Z,13.05
2022-09-28T23:18:55.171Z,13.05
2022-09-28T23:21:25.894Z,13.04
2022-09-28T23:23:56.940Z,13.03
2022-09-28T23:26:30.743Z,13.08
2022-09-28T23:29:00.041Z,13.03
2022-09-28T23:31:30.820Z,12.99
2022-09-28T23:34:06.740Z,12.98
2022-09-28T23:36:35.498Z,12.96
2022-09-28T23:39:04.107Z,12.93
2022-09-28T23:41:32.583Z,12.91
2022-09-28T23:44:00.962Z,12.90
2022-09-28T23:46:29.186Z,12.93
2022-09-28T23:48:57.416Z,12.96
2022-09-28T23:51:25.483Z,12.98
2022-09-28T23:53:53.557Z,12.95
2022-09-28T23:56:22.036Z,12.84
2022-09-28T23:58:50.107Z,12.78
